Time;durP1;ratioP1;P1;durP2;ratioP2;P2;SDS_P1;SDS_P2;PMS_P1;PMS_P2;Temp;Humidity;BMP_temperature;BMP_pressure;BME280_temperature;BME280_humidity;BME280_pressure;Samples;Min_cycle;Max_cycle;Signal;HPM_P1;HPM_P2
2023/04/11 00:00:51;;;;;;;39.83;4.85;;;;;;;8.61;97.88;100839.25;5000451;28;20052;-76
2023/04/11 00:03:16;;;;;;;34.42;4.47;;;;;;;8.59;97.72;100838.44;5000360;28;20422;-76
2023/04/11 00:05:41;;;;;;;27.35;3.83;;;;;;;8.58;98.05;100855.00;4999235;28;20042;-76
2023/04/11 00:08:07;;;;;;;30.83;4.25;;;;;;;8.58;97.74;100855.00;5000503;28;20045;-77
2023/04/11 00:10:32;;;;;;;27.50;3.50;;;;;;;8.59;98.03;100848.88;4999938;28;20372;-76
2023/04/11 00:12:58;;;;;;;27.67;3.92;;;;;;;8.58;97.84;100851.53;4999299;28;20050;-76
2023/04/11 00:15:25;;;;;;;27.77;4.18;;;;;;;8.58;97.66;100851.53;4998557;28;20399;-76
2023/04/11 00:17:52;;;;;;;29.92;4.97;;;;;;;8.57;97.59;100858.53;4998966;28;20042;-76
2023/04/11 00:20:21;;;;;;;24.88;3.63;;;;;;;8.57;97.38;100850.69;5000114;28;20045;-76
2023/04/11 00:22:46;;;;;;;;;;;;;;;8.58;97.27;100852.38;4999874;28;20046;-76
2023/04/11 00:25:12;;;;;;;26.13;3.45;;;;;;;8.57;97.47;100844.63;4999677;28;20161;-76
2023/04/11 00:27:37;;;;;;;25.60;3.45;;;;;;;8.57;97.39;100842.00;4998079;28;20273;-76
2023/04/11 00:30:05;;;;;;;24.13;3.75;;;;;;;8.58;97.17;100848.94;5002649;28;20084;-76
2023/04/11 00:32:30;;;;;;;27.67;4.05;;;;;;;8.58;97.19;100860.22;5004230;28;20092;-76
2023/04/11 00:34:56;;;;;;;18.80;3.45;;;;;;;8.57;96.92;100857.69;5003211;28;20337;-76
2023/04/11 00:37:21;;;;;;;22.83;3.40;;;;;;;8.58;97.08;100860.22;5003805;28;20114;-76
2023/04/11 00:39:51;;;;;;;19.33;3.67;;;;;;;8.59;97.31;100856.72;5003678;28;20050;-76
2023/04/11 00:42:18;;;;;;;28.95;4.47;;;;;;;8.58;97.13;100861.97;5003413;28;20038;-76
2023/04/11 00:44:44;;;;;;;30.27;3.95;;;;;;;8.57;97.06;100863.75;5003283;28;20037;-76
2023/04/11 00:47:10;;;;;;;36.67;4.45;;;;;;;8.59;97.40;100877.59;5003016;28;20034;-76
2023/04/11 00:49:35;;;;;;;20.80;3.55;;;;;;;8.59;97.06;100858.47;5003545;28;20368;-76
2023/04/11 00:52:03;;;;;;;19.52;3.72;;;;;;;8.59;97.19;100867.16;5002940;28;20056;-76
2023/04/11 00:54:29;;;;;;;23.92;3.92;;;;;;;8.60;97.03;100873.22;5003045;28;20053;-76
2023/04/11 00:57:03;;;;;;;28.35;3.92;;;;;;;8.59;97.06;100872.38;5003359;28;20030;-76
2023/04/11 00:59:30;;;;;;;24.80;3.65;;;;;;;8.62;96.91;100863.56;5003123;28;20058;-76
2023/04/11 01:05:19;;;;;;;23.15;3.22;;;;;;;8.62;95.98;100871.41;4922835;28;20376;-76
2023/04/11 01:07:49;;;;;;;19.13;2.92;;;;;;;8.63;95.64;100875.75;5001209;28;20071;-76
2023/04/11 01:10:15;;;;;;;27.52;3.72;;;;;;;8.62;94.62;100871.41;5001877;28;20306;-76
2023/04/11 01:12:44;;;;;;;17.88;2.70;;;;;;;8.64;94.95;100867.00;4999627;28;20066;-76
2023/04/11 01:15:10;;;;;;;15.35;2.35;;;;;;;8.62;93.97;100868.78;5000982;28;20133;-76
2023/04/11 01:17:36;;;;;;;9.43;1.90;;;;;;;8.63;93.21;100866.16;4999608;28;20034;-76
2023/04/11 01:20:01;;;;;;;9.75;1.83;;;;;;;8.64;92.26;100874.81;5000513;28;20191;-76
2023/04/11 01:22:27;;;;;;;11.48;1.60;;;;;;;8.65;91.41;100879.16;5000668;28;20124;-76
2023/04/11 01:24:52;;;;;;;5.85;1.42;;;;;;;8.64;89.86;100874.81;4999416;28;20341;-76
2023/04/11 01:27:18;;;;;;;18.27;2.75;;;;;;;8.63;89.70;100875.75;5000870;28;20136;-76
2023/04/11 01:29:43;;;;;;;13.05;2.17;;;;;;;8.62;88.85;100874.03;5000253;28;20113;-76
2023/04/11 01:32:09;;;;;;;12.70;2.00;;;;;;;8.62;89.27;100879.25;5000434;28;20080;-76
2023/04/11 01:34:38;;;;;;;8.85;1.50;;;;;;;8.61;88.89;100880.16;4999119;28;20038;-77
2023/04/11 01:37:04;;;;;;;10.85;1.35;;;;;;;8.60;88.74;100876.72;4995685;28;20069;-76
2023/04/11 01:39:29;;;;;;;6.20;1.42;;;;;;;8.58;88.87;100883.69;4997329;28;20046;-77
2023/04/11 01:41:56;;;;;;;11.55;1.42;;;;;;;8.58;88.99;100878.47;4996647;28;20043;-77
2023/04/11 01:44:23;;;;;;;9.98;1.90;;;;;;;8.54;88.23;100895.16;4995755;28;20109;-76
2023/04/11 01:46:48;;;;;;;9.90;1.40;;;;;;;8.52;87.79;100896.13;5008937;28;20046;-76
2023/04/11 01:49:17;;;;;;;8.82;1.38;;;;;;;8.52;88.37;100890.91;4993717;28;20101;-76
2023/04/11 01:51:43;;;;;;;;;;;;;;;8.50;88.47;100898.78;5000138;28;20256;-76
2023/04/11 01:54:08;;;;;;;7.50;2.10;;;;;;;8.49;88.49;100904.03;4992415;28;20284;-76
2023/04/11 01:56:34;;;;;;;8.43;1.63;;;;;;;8.47;88.52;100918.88;4999776;28;20375;-77
2023/04/11 01:59:00;;;;;;;9.65;2.55;;;;;;;8.42;88.43;100913.78;5000346;28;20322;-76
2023/04/11 02:01:25;;;;;;;7.82;1.40;;;;;;;8.42;88.75;100916.41;5014489;28;20042;-76
2023/04/11 02:03:51;;;;;;;12.85;1.80;;;;;;;8.41;88.56;100919.91;4999470;28;20064;-76
2023/04/11 02:06:16;;;;;;;11.13;1.73;;;;;;;8.38;88.70;100920.84;5000204;28;20042;-77
2023/04/11 02:08:42;;;;;;;9.30;1.73;;;;;;;8.36;88.78;100927.84;4999019;28;20241;-76
2023/04/11 02:11:08;;;;;;;10.02;1.42;;;;;;;8.36;88.81;100921.78;4999832;28;20069;-76
2023/04/11 02:13:34;;;;;;;9.15;1.58;;;;;;;8.36;nan;100924.41;4999722;28;20057;-77
2023/04/11 02:16:08;;;;;;;8.95;1.75;;;;;;;8.36;89.13;100927.00;4999741;28;20061;-77
2023/04/11 02:18:35;;;;;;;10.88;1.85;;;;;;;8.35;88.57;100922.69;4998933;28;20046;-77
2023/04/11 02:21:01;;;;;;;11.35;2.08;;;;;;;8.33;89.04;100927.97;4999567;28;20053;-77
2023/04/11 02:23:26;;;;;;;10.73;2.38;;;;;;;8.33;89.05;100937.53;4999721;28;20052;-77
2023/04/11 02:25:52;;;;;;;15.15;2.42;;;;;;;8.32;88.71;100933.22;4998885;28;20053;-79
2023/04/11 02:28:17;;;;;;;8.02;1.60;;;;;;;8.32;89.39;100934.06;4999681;28;20053;-80
2023/04/11 02:30:42;;;;;;;11.35;2.67;;;;;;;8.30;89.27;100938.50;4999535;28;20061;-79
2023/04/11 02:33:08;;;;;;;12.48;1.88;;;;;;;8.29;89.75;100938.53;5014000;28;20065;-78
2023/04/11 02:35:33;;;;;;;3.47;1.35;;;;;;;8.26;89.44;100942.94;4998129;28;20046;-79
2023/04/11 02:37:59;;;;;;;13.43;2.15;;;;;;;8.23;88.67;100940.41;4999455;28;20113;-78
2023/04/11 02:40:24;;;;;;;5.30;1.45;;;;;;;8.24;89.03;100943.88;4999630;28;20034;-78
2023/04/11 02:42:50;;;;;;;11.00;1.50;;;;;;;8.21;88.89;100939.59;5013759;28;20256;-78
2023/04/11 02:45:15;;;;;;;14.27;2.38;;;;;;;8.20;89.04;100942.25;4999027;28;20050;-78
2023/04/11 02:47:40;;;;;;;11.38;2.13;;;;;;;8.16;89.20;100945.84;4998784;28;20333;-78
2023/04/11 02:50:07;;;;;;;10.18;1.63;;;;;;;8.13;89.37;100948.53;4999413;28;20326;-78
2023/04/11 02:52:32;;;;;;;15.40;2.13;;;;;;;8.11;89.59;100953.81;4998702;28;20035;-79
2023/04/11 02:54:58;;;;;;;8.65;2.00;;;;;;;8.10;89.39;100949.50;5006924;28;20077;-78
2023/04/11 02:57:23;;;;;;;8.05;1.55;;;;;;;8.08;89.17;100946.94;4998904;28;20274;-78
2023/04/11 02:59:49;;;;;;;12.82;2.50;;;;;;;8.07;89.39;100952.19;4998674;28;20050;-78
2023/04/11 03:02:15;;;;;;;14.18;1.90;;;;;;;8.05;89.40;100949.63;4999503;28;20069;-78
2023/04/11 03:04:40;;;;;;;14.50;2.22;;;;;;;8.04;89.81;100960.09;4997146;28;20253;-78
2023/04/11 03:07:05;;;;;;;12.55;1.73;;;;;;;8.03;89.80;100958.41;4991756;28;20043;-79
2023/04/11 03:09:31;;;;;;;8.23;1.67;;;;;;;8.01;89.54;100949.78;4997054;28;20264;-79
2023/04/11 03:11:56;;;;;;;9.20;1.88;;;;;;;8.02;89.64;100946.25;4998452;28;20464;-78
2023/04/11 03:14:22;;;;;;;11.68;2.08;;;;;;;8.01;89.89;100958.44;4997452;28;20046;-78
2023/04/11 03:16:47;;;;;;;8.02;1.75;;;;;;;7.99;89.74;100957.63;4998521;28;20046;-78
2023/04/11 03:19:12;;;;;;;4.15;1.50;;;;;;;7.99;89.33;100965.47;4998816;28;20046;-79
2023/04/11 03:21:38;;;;;;;9.90;1.63;;;;;;;8.00;89.08;100966.28;4998012;28;20054;-79
2023/04/11 03:24:03;;;;;;;9.55;1.45;;;;;;;7.98;87.72;100968.09;4998694;28;20065;-79
2023/04/11 03:26:29;;;;;;;9.10;1.52;;;;;;;7.98;88.21;100979.38;4998738;28;20041;-78
2023/04/11 03:28:55;;;;;;;8.13;1.60;;;;;;;8.00;88.43;100985.41;4997973;28;20342;-78
2023/04/11 03:31:20;;;;;;;8.25;1.42;;;;;;;8.00;87.42;100979.34;4998424;28;20226;-78
2023/04/11 03:33:46;;;;;;;10.02;1.60;;;;;;;7.97;86.91;100976.84;4997820;28;20038;-78
2023/04/11 03:36:11;;;;;;;9.18;1.60;;;;;;;7.95;86.67;100981.22;4979613;28;20112;-78
2023/04/11 03:38:37;;;;;;;6.47;1.58;;;;;;;7.96;86.70;100990.75;4996522;28;20429;-78
2023/04/11 03:41:02;;;;;;;10.73;1.80;;;;;;;7.94;85.65;100988.19;4998362;28;20046;-78
2023/04/11 03:43:28;;;;;;;10.23;2.08;;;;;;;7.91;85.93;100996.09;4996839;28;20077;-78
2023/04/11 03:45:53;;;;;;;5.35;1.15;;;;;;;7.89;85.75;100995.28;4998324;28;20069;-78
2023/04/11 03:48:19;;;;;;;10.93;1.75;;;;;;;7.87;85.81;101002.28;4998250;28;20221;-78
2023/04/11 03:50:44;;;;;;;8.45;1.80;;;;;;;7.85;85.24;100999.72;4997369;28;20053;-78
2023/04/11 03:53:09;;;;;;;8.27;1.98;;;;;;;7.86;85.63;101009.28;5013242;28;20030;-78
2023/04/11 03:55:35;;;;;;;9.57;1.42;;;;;;;7.82;84.57;101015.47;4970934;28;20114;-78
2023/04/11 03:58:00;;;;;;;8.05;1.63;;;;;;;7.82;85.03;101014.59;4997680;28;20077;-79
2023/04/11 04:00:26;;;;;;;7.18;1.20;;;;;;;7.82;85.61;101020.69;4997929;28;20045;-79
2023/04/11 04:02:51;;;;;;;10.63;1.58;;;;;;;7.77;84.60;101017.34;4989186;28;20034;-78
2023/04/11 04:05:17;;;;;;;10.50;1.15;;;;;;;7.77;85.15;101019.09;4995659;28;20038;-78
2023/04/11 04:07:42;;;;;;;12.25;2.10;;;;;;;7.73;84.56;101020.03;4997975;28;20042;-78
2023/04/11 04:10:08;;;;;;;4.72;1.20;;;;;;;7.71;84.20;101030.50;5005030;28;20057;-78
2023/04/11 04:12:33;;;;;;;4.90;1.05;;;;;;;7.70;84.32;101041.84;4996001;28;20050;-78
2023/04/11 04:14:59;;;;;;;8.30;2.38;;;;;;;7.68;83.89;101034.06;4997893;28;20065;-79
2023/04/11 04:17:24;;;;;;;6.75;1.35;;;;;;;7.67;83.81;101039.31;4998166;28;20036;-78
2023/04/11 04:19:50;;;;;;;9.95;1.25;;;;;;;7.66;84.23;101035.00;4997201;28;20034;-78
2023/04/11 04:22:16;;;;;;;6.07;1.20;;;;;;;7.65;84.56;101043.72;4990291;28;20297;-78
2023/04/11 04:24:44;;;;;;;5.68;0.90;;;;;;;7.65;84.66;101048.94;4992972;28;20034;-78
2023/04/11 04:27:13;;;;;;;6.63;1.08;;;;;;;7.62;84.18;101041.16;4996962;28;20329;-78
2023/04/11 04:29:47;;;;;;;5.45;1.20;;;;;;;7.60;84.77;101041.22;4996263;28;20332;-78
2023/04/11 04:32:19;;;;;;;17.70;1.70;;;;;;;7.60;85.22;101041.22;4996574;28;20049;-78
2023/04/11 04:34:54;;;;;;;3.80;1.25;;;;;;;7.56;84.98;101039.56;4996015;28;20042;-78
2023/04/11 04:37:22;;;;;;;6.25;1.15;;;;;;;7.55;84.65;101052.66;4998134;28;20042;-78
2023/04/11 04:39:55;;;;;;;9.33;2.03;;;;;;;7.55;85.18;101045.72;4996592;28;20041;-78
2023/04/11 04:42:26;;;;;;;7.80;1.27;;;;;;;7.53;84.97;101059.66;4996892;28;20584;-79
2023/04/11 04:44:54;;;;;;;8.02;1.23;;;;;;;7.53;85.51;101054.44;4997025;28;20337;-78
2023/04/11 04:47:24;;;;;;;5.90;1.02;;;;;;;7.51;85.90;101062.28;4997641;28;20046;-78
2023/04/11 04:49:54;;;;;;;7.72;1.35;;;;;;;7.50;86.12;101068.41;4993113;28;20218;-78
2023/04/11 04:52:20;;;;;;;9.40;1.67;;;;;;;7.49;86.52;101071.91;4992585;28;20234;-79
2023/04/11 04:54:47;;;;;;;6.97;1.20;;;;;;;7.49;86.75;101066.69;5012298;28;20038;-78
2023/04/11 04:57:12;;;;;;;12.77;1.63;;;;;;;7.47;87.03;101064.09;4996449;28;20051;-79
2023/04/11 04:59:37;;;;;;;6.80;1.38;;;;;;;7.46;87.44;101061.56;4995866;28;20026;-79
2023/04/11 05:02:03;;;;;;;7.43;1.52;;;;;;;7.47;87.44;101069.31;4997470;28;20089;-78
2023/04/11 05:04:29;;;;;;;8.15;1.23;;;;;;;7.48;87.97;101070.19;4996133;28;20100;-79
2023/04/11 05:06:54;;;;;;;11.88;2.00;;;;;;;7.48;88.18;101073.66;4994995;28;20030;-79
2023/04/11 05:09:20;;;;;;;3.33;0.80;;;;;;;7.50;88.43;101079.69;4996047;28;20054;-77
2023/04/11 05:11:46;;;;;;;6.65;1.45;;;;;;;7.53;88.91;101083.09;5004011;28;20046;-78
2023/04/11 05:14:11;;;;;;;9.68;1.58;;;;;;;7.54;89.43;101090.91;4997053;28;20050;-78
2023/04/11 05:16:40;;;;;;;8.60;1.52;;;;;;;7.56;89.32;101086.50;4999439;28;20038;-78
2023/04/11 05:19:05;;;;;;;9.15;2.00;;;;;;;7.57;89.31;101088.22;4992310;28;20031;-78
2023/04/11 05:21:30;;;;;;;7.43;1.40;;;;;;;7.61;89.51;101089.00;5008447;28;20097;-78
2023/04/11 05:23:56;;;;;;;11.80;2.10;;;;;;;7.62;89.46;101091.56;5000941;28;20042;-78
2023/04/11 05:26:21;;;;;;;13.48;2.20;;;;;;;7.63;89.35;101095.88;4984967;28;20034;-78
2023/04/11 05:28:46;;;;;;;10.70;2.30;;;;;;;7.64;89.87;101099.34;5000515;28;20088;-78
2023/04/11 05:31:12;;;;;;;9.70;2.17;;;;;;;7.65;89.70;101101.06;5000885;28;20050;-78
2023/04/11 05:33:39;;;;;;;8.52;1.60;;;;;;;7.67;89.77;101104.47;4999290;28;20030;-78
2023/04/11 05:36:05;;;;;;;16.40;2.97;;;;;;;7.67;89.82;101107.94;4998977;28;20061;-79
2023/04/11 05:38:33;;;;;;;13.93;2.25;;;;;;;7.68;89.76;101111.44;4996543;28;20349;-78
2023/04/11 05:40:59;;;;;;;18.90;3.00;;;;;;;7.69;89.69;101124.44;5009719;28;20149;-78
2023/04/11 05:43:24;;;;;;;12.07;2.60;;;;;;;7.72;89.34;101122.63;4989766;28;20026;-77
2023/04/11 05:45:50;;;;;;;15.23;1.85;;;;;;;7.73;89.43;101111.28;4996341;28;20233;-78
2023/04/11 05:48:18;;;;;;;12.00;2.28;;;;;;;7.73;89.08;101124.34;4989656;28;20089;-78
2023/04/11 05:50:44;;;;;;;17.55;2.65;;;;;;;7.73;88.72;101133.03;4992129;28;20439;-79
2023/04/11 05:53:10;;;;;;;12.60;2.10;;;;;;;7.74;88.12;101121.69;4990350;28;20378;-78
2023/04/11 05:55:35;;;;;;;10.85;2.15;;;;;;;7.74;88.21;101145.16;4994160;28;20042;-78
2023/04/11 05:58:01;;;;;;;9.27;1.60;;;;;;;7.74;88.21;101139.09;4992817;28;20113;-78
2023/04/11 06:00:29;;;;;;;11.50;1.80;;;;;;;7.75;87.84;101146.00;5005754;28;20038;-78
2023/04/11 06:02:55;;;;;;;11.98;1.83;;;;;;;7.74;87.94;101149.53;4997875;28;20093;-78
2023/04/11 06:05:21;;;;;;;13.70;1.80;;;;;;;7.75;87.52;101151.22;4996521;28;20361;-78
2023/04/11 06:07:46;;;;;;;10.07;1.60;;;;;;;7.75;87.33;101152.09;4993024;28;20081;-78
2023/04/11 06:10:12;;;;;;;11.68;1.95;;;;;;;7.75;87.14;101156.44;4997431;28;20114;-78
2023/04/11 06:12:37;;;;;;;5.80;1.52;;;;;;;7.75;86.89;101149.50;5002106;28;20058;-79
2023/04/11 06:15:04;;;;;;;9.07;1.48;;;;;;;7.78;86.38;101165.03;5000535;28;20065;-79
2023/04/11 06:17:29;;;;;;;12.02;1.38;;;;;;;7.80;86.54;101149.38;4998898;28;20113;-78
2023/04/11 06:19:55;;;;;;;11.32;2.00;;;;;;;7.80;86.16;101152.81;4999163;28;20041;-78
2023/04/11 06:22:20;;;;;;;9.73;1.80;;;;;;;7.81;85.93;101164.97;5000835;28;20365;-78
2023/04/11 06:24:46;;;;;;;11.20;1.52;;;;;;;7.84;86.55;101158.81;4998391;28;20375;-78
2023/04/11 06:27:12;;;;;;;15.70;2.65;;;;;;;7.84;86.88;101158.81;4998229;28;20085;-79
2023/04/11 06:29:38;;;;;;;7.30;2.10;;;;;;;7.84;86.54;101154.47;4998746;28;20369;-79
2023/04/11 06:32:04;;;;;;;14.30;2.15;;;;;;;7.87;86.79;101163.97;5000344;28;20403;-78
2023/04/11 06:34:29;;;;;;;7.70;1.45;;;;;;;7.88;86.42;101163.94;4996432;28;20062;-79
2023/04/11 06:36:55;;;;;;;8.88;1.75;;;;;;;7.87;86.03;101172.63;4998885;28;20045;-79
2023/04/11 06:39:20;;;;;;;9.98;1.50;;;;;;;7.87;85.90;101171.78;5003292;28;20065;-79
2023/04/11 06:41:46;;;;;;;14.93;1.75;;;;;;;7.88;86.07;101169.16;4998466;28;20121;-78
2023/04/11 06:44:12;;;;;;;10.05;1.80;;;;;;;7.89;86.59;101172.59;4993696;28;20053;-78
2023/04/11 06:46:38;;;;;;;17.02;2.65;;;;;;;7.87;86.46;101177.84;4994318;28;20041;-79
2023/04/11 06:49:06;;;;;;;8.05;1.35;;;;;;;7.90;86.43;101181.31;5000514;28;20049;-79
2023/04/11 06:51:32;;;;;;;11.68;2.30;;;;;;;7.92;86.72;101187.34;4999013;28;20037;-79
2023/04/11 06:53:57;;;;;;;7.18;1.92;;;;;;;7.91;86.47;101190.81;4999845;28;20041;-79
2023/04/11 06:56:23;;;;;;;9.23;1.35;;;;;;;7.91;85.80;101189.06;4995698;28;20214;-79
2023/04/11 06:58:48;;;;;;;7.68;2.05;;;;;;;7.92;85.73;101195.16;4997657;28;20043;-79
2023/04/11 07:01:14;;;;;;;8.48;1.92;;;;;;;7.92;85.68;101203.00;4980415;28;20105;-79
2023/04/11 07:03:40;;;;;;;13.57;2.25;;;;;;;7.91;83.76;101202.09;4997656;28;20372;-79
2023/04/11 07:06:06;;;;;;;9.57;1.23;;;;;;;7.94;84.26;101209.03;4999420;28;20317;-79
2023/04/11 07:08:32;;;;;;;10.60;1.50;;;;;;;7.97;83.50;101246.31;4997835;28;20317;-78
2023/04/11 07:10:57;;;;;;;7.95;1.55;;;;;;;7.99;82.32;101223.66;4997897;28;20034;-78
2023/04/11 07:13:22;;;;;;;18.30;2.20;;;;;;;7.98;81.06;101221.94;4998511;28;20058;-80
2023/04/11 07:15:48;;;;;;;10.20;2.13;;;;;;;8.00;81.93;101208.88;4992705;28;20145;-78
2023/04/11 07:18:13;;;;;;;10.98;1.98;;;;;;;8.00;80.93;101221.91;4988120;28;20042;-79
2023/04/11 07:20:39;;;;;;;9.25;1.42;;;;;;;8.01;81.07;101216.66;4982350;28;20391;-78
2023/04/11 07:23:04;;;;;;;8.32;1.58;;;;;;;8.02;81.52;101223.59;4990799;28;20038;-79
2023/04/11 07:25:29;;;;;;;12.75;2.10;;;;;;;8.04;81.59;101232.25;4990692;28;20035;-79
2023/04/11 07:27:59;;;;;;;10.02;1.25;;;;;;;8.07;81.85;101229.53;4990490;28;20038;-79
2023/04/11 07:30:25;;;;;;;10.55;1.88;;;;;;;8.10;81.96;101239.06;4988562;28;20034;-78
2023/04/11 07:32:51;;;;;;;8.00;1.63;;;;;;;8.13;82.29;101239.00;4985591;28;20047;-79
2023/04/11 07:35:16;;;;;;;16.92;1.88;;;;;;;8.13;82.06;101233.78;4996208;28;20412;-79
2023/04/11 07:37:41;;;;;;;11.23;2.08;;;;;;;8.13;82.94;101233.78;4991007;28;20046;-79
2023/04/11 07:40:10;;;;;;;11.80;1.75;;;;;;;8.14;82.64;101237.25;4992496;28;20045;-79
2023/04/11 07:42:36;;;;;;;9.60;1.65;;;;;;;8.15;82.77;101246.75;4989776;28;20038;-79
2023/04/11 07:45:01;;;;;;;15.75;2.22;;;;;;;8.15;82.63;101247.63;5004039;28;20061;-79
2023/04/11 07:47:26;;;;;;;9.48;1.80;;;;;;;8.17;82.15;101258.91;4990934;28;20041;-78
2023/04/11 07:49:52;;;;;;;12.00;2.72;;;;;;;8.17;81.08;101240.63;4991826;28;20087;-80
2023/04/11 07:52:17;;;;;;;10.30;1.77;;;;;;;8.20;80.08;101247.50;5005633;28;20057;-79
2023/04/11 07:54:43;;;;;;;6.22;1.45;;;;;;;8.21;80.90;101264.91;4970607;28;20154;-79
2023/04/11 07:57:08;;;;;;;7.93;1.58;;;;;;;8.22;81.04;101261.38;5000626;28;20277;-80
2023/04/11 07:59:34;;;;;;;13.73;1.92;;;;;;;8.21;80.79;101260.53;4987007;28;20046;-79
2023/04/11 08:02:00;;;;;;;10.73;1.88;;;;;;;8.23;81.83;101265.72;4976476;28;20404;-79
2023/04/11 08:04:30;;;;;;;10.48;1.95;;;;;;;8.25;81.50;101256.94;4981779;28;20038;-79
2023/04/11 08:06:55;;;;;;;11.60;2.42;;;;;;;8.28;80.69;101292.56;4987803;28;20101;-79
2023/04/11 08:09:21;;;;;;;7.43;1.42;;;;;;;8.25;79.36;101269.97;4987421;28;20250;-79
2023/04/11 08:11:46;;;;;;;10.13;1.60;;;;;;;8.23;78.35;101279.59;4989013;28;20038;-79
2023/04/11 08:14:11;;;;;;;5.05;1.10;;;;;;;8.22;78.91;101285.75;4973022;28;20054;-80
2023/04/11 08:16:37;;;;;;;10.27;2.03;;;;;;;8.23;78.41;101287.44;4999237;28;20042;-78
2023/04/11 08:19:02;;;;;;;7.63;1.60;;;;;;;8.26;78.84;101289.97;4993531;28;20109;-79
2023/04/11 08:21:28;;;;;;;8.65;1.70;;;;;;;8.29;76.51;101275.13;4994883;28;20280;-79
2023/04/11 08:23:53;;;;;;;13.95;1.80;;;;;;;8.31;77.72;101297.69;4999011;28;20052;-79
2023/04/11 08:26:18;;;;;;;8.25;1.67;;;;;;;8.36;79.02;101298.44;4979197;28;20334;-79
2023/04/11 08:28:44;;;;;;;7.65;1.58;;;;;;;8.39;77.66;101315.78;5003073;28;20341;-79
2023/04/11 08:31:11;;;;;;;6.20;1.27;;;;;;;8.38;76.81;101312.31;4997705;28;20069;-80
2023/04/11 08:33:38;;;;;;;6.45;1.23;;;;;;;8.39;77.89;101313.19;4995967;28;20053;-79
2023/04/11 08:36:04;;;;;;;5.20;1.33;;;;;;;8.34;76.82;101312.44;4995840;28;20042;-79
2023/04/11 08:38:29;;;;;;;8.70;1.35;;;;;;;8.33;77.34;101314.19;4993310;28;20137;-79
2023/04/11 08:40:55;;;;;;;11.90;1.58;;;;;;;8.35;77.77;101312.41;4987531;28;20157;-78
2023/04/11 08:43:21;;;;;;;11.18;1.83;;;;;;;8.38;76.74;101322.75;4983584;28;20049;-79
2023/04/11 08:45:46;;;;;;;5.75;1.27;;;;;;;8.38;74.69;101320.13;4995148;28;20054;-79
2023/04/11 08:48:12;;;;;;;9.65;1.25;;;;;;;8.39;74.46;101310.56;5002820;28;20426;-79
2023/04/11 08:50:43;;;;;;;12.38;2.30;;;;;;;8.41;75.41;101314.00;4997693;28;20038;-79
2023/04/11 08:53:09;;;;;;;15.35;1.33;;;;;;;8.42;73.43;101313.13;5016682;28;20113;-78
2023/04/11 08:55:42;;;;;;;7.70;1.13;;;;;;;8.44;73.10;101324.38;4999975;28;20049;-79
2023/04/11 08:58:08;;;;;;;10.18;1.10;;;;;;;8.45;74.42;101306.06;5002365;28;20293;-79
2023/04/11 09:00:33;;;;;;;10.95;1.40;;;;;;;8.47;74.79;101313.88;5000349;28;20049;-79
2023/04/11 09:03:04;;;;;;;7.03;1.10;;;;;;;8.50;74.93;101311.19;5000990;28;20049;-78
2023/04/11 09:05:38;;;;;;;7.40;1.48;;;;;;;8.52;72.39;101308.56;5001332;28;20030;-79
2023/04/11 09:08:06;;;;;;;6.18;1.25;;;;;;;8.55;72.91;101330.22;5001687;28;20223;-79
2023/04/11 09:10:33;;;;;;;7.38;1.50;;;;;;;8.57;73.59;101338.03;5001552;28;20041;-79
2023/04/11 09:12:58;;;;;;;7.40;1.30;;;;;;;8.59;73.54;101318.78;5000075;28;20100;-79
2023/04/11 09:15:26;;;;;;;6.40;1.48;;;;;;;8.64;73.14;101329.09;5001375;28;20042;-79
2023/04/11 09:17:53;;;;;;;7.53;0.83;;;;;;;8.65;72.58;101325.63;4996457;28;20758;-79
2023/04/11 09:20:20;;;;;;;8.23;1.55;;;;;;;8.65;72.12;101334.31;5001453;28;20041;-79
2023/04/11 09:22:49;;;;;;;9.55;2.00;;;;;;;8.69;71.00;101331.63;5000265;28;20479;-79
2023/04/11 09:25:16;;;;;;;6.35;1.27;;;;;;;8.72;72.44;101326.34;4999062;28;20041;-79
2023/04/11 09:27:41;;;;;;;12.15;2.00;;;;;;;8.75;71.27;101329.72;4999091;28;20066;-79
2023/04/11 09:30:24;;;;;;;9.07;1.48;;;;;;;8.78;71.76;101336.63;4995798;28;20081;-79
2023/04/11 09:32:53;;;;;;;8.73;1.38;;;;;;;8.82;70.29;101338.25;4999808;28;20038;-79
2023/04/11 09:35:24;;;;;;;10.77;1.75;;;;;;;8.85;70.83;101332.94;5001002;28;20100;-78
2023/04/11 09:37:51;;;;;;;10.40;1.58;;;;;;;8.88;71.44;101332.00;4996770;28;20149;-79
2023/04/11 09:40:19;;;;;;;10.00;1.48;;;;;;;8.90;71.69;101331.09;4992549;28;20038;-79
2023/04/11 09:42:46;;;;;;;5.13;1.38;;;;;;;8.92;71.51;101344.97;4999186;28;20134;-79
2023/04/11 09:45:22;;;;;;;4.45;1.10;;;;;;;8.94;70.66;101340.53;5001038;28;20041;-78
2023/04/11 09:47:49;;;;;;;10.63;1.83;;;;;;;8.98;71.83;101342.19;4999980;28;20325;-79
2023/04/11 09:50:15;;;;;;;7.72;1.20;;;;;;;9.03;70.87;101352.53;4999324;28;20041;-79
2023/04/11 09:52:42;;;;;;;6.45;1.55;;;;;;;9.03;70.01;101335.09;5000165;28;20076;-78
2023/04/11 09:55:12;;;;;;;6.75;1.75;;;;;;;9.08;71.71;101339.31;5001235;28;20038;-78
2023/04/11 09:57:45;;;;;;;9.90;2.08;;;;;;;9.10;71.27;101338.41;4997441;28;20384;-79
2023/04/11 10:00:18;;;;;;;19.65;3.70;;;;;;;9.11;70.44;101341.84;4999385;28;20433;-79
2023/04/11 10:02:45;;;;;;;13.32;1.88;;;;;;;9.16;71.22;101337.38;5000779;28;20045;-79
2023/04/11 10:05:12;;;;;;;6.78;1.83;;;;;;;9.17;70.94;101362.63;4999168;28;20125;-80
2023/04/11 10:07:54;;;;;;;11.10;1.73;;;;;;;9.21;70.87;101348.56;4999909;28;20093;-79
2023/04/11 10:10:21;;;;;;;5.25;1.10;;;;;;;9.23;70.88;101362.44;4991329;28;20041;-79
2023/04/11 10:12:48;;;;;;;6.28;1.20;;;;;;;9.22;68.75;101348.53;4994192;28;20038;-78
2023/04/11 10:15:14;;;;;;;5.63;1.33;;;;;;;9.22;69.29;101355.50;4997897;28;20046;-79
2023/04/11 10:17:40;;;;;;;5.70;1.30;;;;;;;9.22;68.31;101351.16;4996745;28;20045;-78
2023/04/11 10:20:45;;;;;;;11.00;1.52;;;;;;;9.22;67.99;101350.25;4996321;28;20030;-78
2023/04/11 10:23:11;;;;;;;6.13;1.30;;;;;;;9.15;66.47;101346.09;4994229;28;20599;-78
2023/04/11 10:25:59;;;;;;;7.30;1.20;;;;;;;9.14;68.19;101355.69;4998049;28;20409;-78
2023/04/11 10:28:38;;;;;;;9.45;2.58;;;;;;;9.14;68.29;101349.63;4988881;28;20038;-78
2023/04/11 10:31:08;;;;;;;7.15;1.67;;;;;;;9.15;69.01;101351.31;4998793;28;20038;-79
2023/04/11 10:33:36;;;;;;;15.80;1.63;;;;;;;9.15;70.23;101357.44;4997965;28;20040;-78
2023/04/11 10:36:09;;;;;;;8.45;1.45;;;;;;;9.22;70.82;101347.66;5000446;28;20041;-78
2023/04/11 10:38:47;;;;;;;8.88;1.40;;;;;;;9.30;71.11;101344.84;4999355;28;20125;-78
2023/04/11 10:41:21;;;;;;;4.20;1.20;;;;;;;9.32;70.99;101348.28;4999228;28;20019;-78
2023/04/11 10:43:47;;;;;;;9.48;1.30;;;;;;;9.31;69.30;101346.56;4997715;28;20042;-78
2023/04/11 10:46:23;;;;;;;8.25;1.52;;;;;;;9.33;70.97;101344.75;4999704;28;20037;-78
2023/04/11 10:49:31;;;;;;;8.70;1.33;;;;;;;9.41;71.44;101363.72;4999095;28;20081;-79
2023/04/11 10:52:15;;;;;;;14.07;1.77;;;;;;;9.44;70.21;101337.50;4991198;28;20050;-78
2023/04/11 10:54:40;;;;;;;8.38;1.70;;;;;;;9.43;69.56;101338.38;4998752;28;20257;-78
2023/04/11 10:57:06;;;;;;;8.07;1.70;;;;;;;9.45;70.69;101328.72;4999283;28;20101;-78
2023/04/11 10:59:31;;;;;;;18.75;2.38;;;;;;;9.48;70.34;101330.38;4999124;28;20049;-78
2023/04/11 11:01:59;;;;;;;9.88;1.55;;;;;;;9.51;69.46;101346.00;4997318;28;20061;-79
2023/04/11 11:04:35;;;;;;;15.70;2.10;;;;;;;9.53;70.71;101329.38;4999500;28;20598;-78
2023/04/11 11:07:03;;;;;;;6.07;1.48;;;;;;;9.57;70.76;101331.00;4994894;28;20034;-79
2023/04/11 11:09:29;;;;;;;18.67;1.90;;;;;;;9.62;71.44;101362.25;4998445;28;20363;-78
2023/04/11 11:12:11;;;;;;;12.48;2.17;;;;;;;9.65;71.13;101341.25;4999120;28;20026;-79
2023/04/11 11:14:39;;;;;;;10.75;1.77;;;;;;;9.69;71.82;101342.84;4998685;28;20038;-78
2023/04/11 11:17:05;;;;;;;12.57;1.90;;;;;;;9.70;67.70;101357.66;4999209;28;20133;-78
2023/04/11 11:19:31;;;;;;;6.43;1.38;;;;;;;9.70;66.32;101347.19;4998856;28;20058;-79
2023/04/11 11:22:02;;;;;;;5.20;1.17;;;;;;;9.70;66.62;101359.44;4996056;28;20037;-78
2023/04/11 11:24:28;;;;;;;13.70;1.98;;;;;;;9.70;66.78;101357.66;4997744;28;20049;-79
2023/04/11 11:26:54;;;;;;;11.00;2.58;;;;;;;9.71;68.26;101361.97;4998977;28;20030;-79
2023/04/11 11:29:36;;;;;;;9.07;1.58;;;;;;;9.73;68.97;101359.31;4999024;28;20042;-78
2023/04/11 11:32:02;;;;;;;14.85;1.50;;;;;;;9.74;68.56;101374.97;4999111;28;20034;-79